Time;durP1;ratioP1;P1;durP2;ratioP2;P2;SDS_P1;SDS_P2;PMS_P1;PMS_P2;Temp;Humidity;BMP_temperature;BMP_pressure;BME280_temperature;BME280_humidity;BME280_pressure;Samples;Min_cycle;Max_cycle;Signal;HPM_P1;HPM_P2
2022/11/23 00:00:29;;;;;;;5.60;2.93;;;;;;;;;;5018049;28;20226;-64
2022/11/23 00:02:57;;;;;;;4.97;2.80;;;;;;;;;;5015242;28;20696;-64
2022/11/23 00:05:29;;;;;;;7.43;3.17;;;;;;;;;;5016038;28;20909;-63
2022/11/23 00:07:56;;;;;;;6.67;2.60;;;;;;;;;;5025299;28;20203;-62
2022/11/23 00:10:23;;;;;;;8.70;2.43;;;;;;;;;;5035344;28;20290;-63
2022/11/23 00:12:51;;;;;;;4.47;2.67;;;;;;;;;;5040788;28;20696;-64
2022/11/23 00:15:18;;;;;;;4.27;2.40;;;;;;;;;;5034914;28;20246;-64
2022/11/23 00:17:47;;;;;;;3.13;2.10;;;;;;;;;;5027457;28;20312;-63
2022/11/23 00:20:14;;;;;;;4.13;2.00;;;;;;;;;;5019777;28;20206;-64
2022/11/23 00:22:41;;;;;;;3.50;2.30;;;;;;;;;;5017858;28;20804;-64
2022/11/23 00:25:09;;;;;;;6.57;2.50;;;;;;;;;;5030249;28;20241;-64
2022/11/23 00:27:36;;;;;;;3.73;1.80;;;;;;;;;;5055105;28;20228;-64
2022/11/23 00:30:04;;;;;;;2.57;2.10;;;;;;;;;;5033947;28;20238;-63
2022/11/23 00:32:31;;;;;;;3.33;2.20;;;;;;;;;;5050598;28;20275;-64
2022/11/23 00:34:59;;;;;;;7.30;2.13;;;;;;;;;;5050592;28;20206;-63
2022/11/23 00:37:26;;;;;;;3.33;2.00;;;;;;;;;;5028374;28;20214;-63
2022/11/23 00:39:53;;;;;;;5.60;2.00;;;;;;;;;;5015178;28;20277;-63
2022/11/23 00:42:21;;;;;;;6.93;2.00;;;;;;;;;;5016879;28;20230;-63
2022/11/23 00:44:48;;;;;;;2.77;2.00;;;;;;;;;;5031035;28;20313;-64
2022/11/23 00:47:16;;;;;;;3.23;2.20;;;;;;;;;;5019985;28;20238;-64
2022/11/23 00:49:46;;;;;;;3.50;2.47;;;;;;;;;;5029026;28;20206;-64
2022/11/23 00:52:14;;;;;;;5.23;2.40;;;;;;;;;;5017173;28;20232;-63
2022/11/23 00:54:41;;;;;;;4.57;1.90;;;;;;;;;;5030578;28;20212;-63
2022/11/23 00:57:08;;;;;;;6.20;2.57;;;;;;;;;;5017954;28;20213;-64
2022/11/23 00:59:36;;;;;;;5.87;2.27;;;;;;;;;;5031086;28;20288;-64
2022/11/23 01:02:03;;;;;;;9.03;2.60;;;;;;;;;;5018228;28;20337;-62
2022/11/23 01:04:30;;;;;;;5.57;2.20;;;;;;;;;;5015612;28;20228;-62
2022/11/23 01:06:58;;;;;;;4.93;2.60;;;;;;;;;;5020397;28;20223;-64
2022/11/23 01:09:25;;;;;;;6.07;2.50;;;;;;;;;;5031496;28;20201;-62
2022/11/23 01:11:53;;;;;;;5.37;2.60;;;;;;;;;;5016903;28;20280;-62
2022/11/23 01:14:21;;;;;;;6.40;2.70;;;;;;;;;;5032694;28;20206;-62
2022/11/23 01:16:48;;;;;;;5.53;2.77;;;;;;;;;;5018321;28;20309;-63
2022/11/23 01:19:18;;;;;;;9.87;2.67;;;;;;;;;;5033462;28;20205;-64
2022/11/23 01:21:46;;;;;;;3.73;2.30;;;;;;;;;;5038794;28;20325;-64
2022/11/23 01:24:14;;;;;;;6.40;2.40;;;;;;;;;;5032364;28;20230;-64
2022/11/23 01:26:43;;;;;;;7.47;2.70;;;;;;;;;;5035133;28;20199;-64
2022/11/23 01:29:10;;;;;;;7.07;3.07;;;;;;;;;;5036189;28;20244;-64
2022/11/23 01:31:39;;;;;;;6.87;3.07;;;;;;;;;;5035873;28;20224;-63
2022/11/23 01:34:13;;;;;;;7.67;2.53;;;;;;;;;;5021027;28;20212;-63
2022/11/23 01:36:41;;;;;;;6.40;2.77;;;;;;;;;;5030786;28;20205;-64
2022/11/23 01:39:10;;;;;;;6.70;2.93;;;;;;;;;;5030354;28;21148;-62
2022/11/23 01:41:39;;;;;;;4.03;2.23;;;;;;;;;;5018450;28;20198;-63
2022/11/23 01:44:25;;;;;;;6.37;2.00;;;;;;;;;;5017665;28;20269;-63
2022/11/23 01:46:53;;;;;;;3.83;1.87;;;;;;;;;;5031657;28;20206;-61
2022/11/23 01:49:21;;;;;;;2.57;1.90;;;;;;;;;;5052475;28;20414;-63
2022/11/23 01:51:50;;;;;;;6.13;2.63;;;;;;;;;;5014365;28;20257;-64
2022/11/23 01:54:24;;;;;;;4.77;2.00;;;;;;;;;;5021945;28;20301;-63
2022/11/23 01:56:56;;;;;;;3.80;1.90;;;;;;;;;;5016235;28;20297;-64
2022/11/23 01:59:25;;;;;;;2.53;2.07;;;;;;;;;;5018446;28;20226;-62
2022/11/23 02:01:52;;;;;;;5.97;2.57;;;;;;;;;;5033806;28;20222;-62
2022/11/23 02:04:25;;;;;;;6.10;1.80;;;;;;;;;;5015191;28;20675;-63
2022/11/23 02:06:55;;;;;;;4.97;1.70;;;;;;;;;;5017610;28;20244;-63
2022/11/23 02:09:22;;;;;;;8.80;3.00;;;;;;;;;;5033475;28;20751;-62
2022/11/23 02:11:51;;;;;;;5.30;1.70;;;;;;;;;;5033701;28;20309;-63
2022/11/23 02:14:18;;;;;;;4.37;1.90;;;;;;;;;;5012763;28;20214;-63
2022/11/23 02:16:50;;;;;;;4.83;1.70;;;;;;;;;;5019140;28;20680;-62
2022/11/23 02:19:25;;;;;;;5.47;1.90;;;;;;;;;;5012514;28;20202;-62
2022/11/23 02:21:53;;;;;;;2.67;1.77;;;;;;;;;;5030999;28;20221;-62
2022/11/23 02:24:26;;;;;;;4.57;1.70;;;;;;;;;;5012737;28;20202;-64
2022/11/23 02:26:54;;;;;;;4.20;1.87;;;;;;;;;;5024745;28;20363;-63
2022/11/23 02:29:23;;;;;;;2.70;2.00;;;;;;;;;;5031273;28;20230;-62
2022/11/23 02:31:51;;;;;;;4.07;2.17;;;;;;;;;;5012601;28;20234;-62
2022/11/23 02:34:18;;;;;;;3.80;2.30;;;;;;;;;;5012170;28;20212;-63
2022/11/23 02:36:47;;;;;;;2.70;2.13;;;;;;;;;;5012128;28;20198;-64
2022/11/23 02:39:22;;;;;;;3.17;2.50;;;;;;;;;;5028505;28;20210;-64
2022/11/23 02:41:51;;;;;;;4.53;2.70;;;;;;;;;;5043875;28;20524;-63
2022/11/23 02:44:31;;;;;;;5.43;2.77;;;;;;;;;;5011285;28;20234;-63
2022/11/23 02:46:58;;;;;;;4.13;2.80;;;;;;;;;;5028135;28;20328;-63
2022/11/23 02:49:25;;;;;;;3.33;2.50;;;;;;;;;;5015919;28;20206;-62
2022/11/23 02:51:53;;;;;;;2.53;2.33;;;;;;;;;;5010865;28;20368;-63
2022/11/23 02:54:20;;;;;;;2.80;2.40;;;;;;;;;;5028060;28;20275;-62
2022/11/23 02:56:47;;;;;;;5.80;2.37;;;;;;;;;;5010656;28;20202;-63
2022/11/23 02:59:15;;;;;;;3.27;2.80;;;;;;;;;;5016597;28;20207;-62
2022/11/23 03:01:43;;;;;;;5.33;2.10;;;;;;;;;;5030913;28;20226;-62
2022/11/23 03:04:11;;;;;;;6.23;2.20;;;;;;;;;;5010739;28;20210;-64
2022/11/23 03:06:38;;;;;;;5.87;2.80;;;;;;;;;;5032165;28;20238;-62
2022/11/23 03:09:06;;;;;;;5.37;2.50;;;;;;;;;;5043818;28;21217;-63
2022/11/23 03:11:34;;;;;;;3.97;2.10;;;;;;;;;;5013636;28;20202;-64
2022/11/23 03:14:01;;;;;;;3.07;1.73;;;;;;;;;;5032104;28;20334;-64
2022/11/23 03:16:28;;;;;;;2.07;1.80;;;;;;;;;;5016515;28;20382;-64
2022/11/23 03:18:55;;;;;;;5.63;2.10;;;;;;;;;;5029631;28;20308;-62
2022/11/23 03:21:23;;;;;;;2.33;1.53;;;;;;;;;;5030618;28;20244;-61
2022/11/23 03:23:50;;;;;;;3.07;2.20;;;;;;;;;;5046412;28;20217;-64
2022/11/23 03:26:18;;;;;;;4.17;2.00;;;;;;;;;;5028951;28;20685;-62
2022/11/23 03:28:45;;;;;;;4.57;2.10;;;;;;;;;;5059290;28;20267;-62
2022/11/23 03:31:12;;;;;;;4.00;1.80;;;;;;;;;;5020083;28;20234;-64
2022/11/23 03:33:40;;;;;;;4.23;1.87;;;;;;;;;;5012047;28;20262;-63
2022/11/23 03:36:07;;;;;;;7.47;1.87;;;;;;;;;;5015168;28;20220;-63
2022/11/23 03:38:34;;;;;;;3.77;2.50;;;;;;;;;;5012366;28;20216;-62
2022/11/23 03:41:02;;;;;;;7.53;3.30;;;;;;;;;;5015848;28;20331;-63
2022/11/23 03:43:32;;;;;;;3.93;2.10;;;;;;;;;;5010322;28;20280;-62
2022/11/23 03:45:59;;;;;;;2.90;1.97;;;;;;;;;;5031170;28;20233;-62
2022/11/23 03:48:26;;;;;;;3.10;2.23;;;;;;;;;;5011850;28;20341;-63
2022/11/23 03:50:54;;;;;;;2.23;1.90;;;;;;;;;;5034025;28;20767;-62
2022/11/23 03:53:22;;;;;;;4.50;1.93;;;;;;;;;;5015921;28;20233;-64
2022/11/23 03:55:49;;;;;;;5.03;2.20;;;;;;;;;;5028050;28;20778;-62
2022/11/23 03:58:17;;;;;;;4.17;2.20;;;;;;;;;;5015187;28;20302;-63
2022/11/23 04:00:44;;;;;;;4.93;1.80;;;;;;;;;;5012246;28;20210;-63
2022/11/23 04:03:11;;;;;;;4.97;2.00;;;;;;;;;;5016485;28;20226;-63
2022/11/23 04:05:38;;;;;;;6.00;2.30;;;;;;;;;;5046041;28;20599;-63
2022/11/23 04:08:06;;;;;;;2.53;2.00;;;;;;;;;;5016443;28;20202;-62
2022/11/23 04:10:33;;;;;;;5.57;1.90;;;;;;;;;;5008936;28;23164;-62
2022/11/23 04:13:01;;;;;;;3.40;1.90;;;;;;;;;;5032311;28;20692;-63
2022/11/23 04:15:28;;;;;;;2.80;1.80;;;;;;;;;;5029657;28;20214;-62
2022/11/23 04:17:56;;;;;;;3.47;1.93;;;;;;;;;;5032909;28;20222;-62
2022/11/23 04:20:23;;;;;;;3.70;2.70;;;;;;;;;;5014116;28;20579;-62
2022/11/23 04:22:50;;;;;;;18.63;9.20;;;;;;;;;;5041647;28;20229;-62
2022/11/23 04:25:18;;;;;;;8.40;3.97;;;;;;;;;;5044373;28;20659;-63
2022/11/23 04:27:45;;;;;;;7.63;4.13;;;;;;;;;;5032291;28;20304;-63
2022/11/23 04:30:13;;;;;;;3.97;2.50;;;;;;;;;;5037260;28;20595;-63
2022/11/23 04:32:40;;;;;;;5.97;3.03;;;;;;;;;;5050599;28;20664;-63
2022/11/23 04:35:08;;;;;;;6.57;3.47;;;;;;;;;;5018192;28;20301;-63
2022/11/23 04:37:35;;;;;;;6.47;4.17;;;;;;;;;;5022079;28;20297;-63
2022/11/23 04:40:03;;;;;;;5.20;4.13;;;;;;;;;;5019660;28;20206;-64
2022/11/23 04:42:30;;;;;;;10.23;5.33;;;;;;;;;;5035432;28;20297;-63
2022/11/23 04:44:58;;;;;;;11.50;7.60;;;;;;;;;;5035487;28;20214;-64
2022/11/23 04:47:27;;;;;;;21.53;11.00;;;;;;;;;;5010662;28;20217;-62
2022/11/23 04:49:54;;;;;;;29.10;14.77;;;;;;;;;;5051002;28;20206;-64
2022/11/23 04:52:21;;;;;;;10.10;4.70;;;;;;;;;;5044288;28;20264;-64
2022/11/23 04:54:50;;;;;;;7.33;3.53;;;;;;;;;;5033250;28;20674;-63
2022/11/23 04:57:17;;;;;;;7.47;4.10;;;;;;;;;;5029691;28;20285;-64
2022/11/23 04:59:44;;;;;;;8.67;4.90;;;;;;;;;;5016784;28;20206;-62
2022/11/23 05:02:12;;;;;;;6.57;4.27;;;;;;;;;;5006372;28;20230;-62
2022/11/23 05:04:39;;;;;;;9.23;4.57;;;;;;;;;;5036240;28;20337;-61
2022/11/23 05:07:07;;;;;;;7.27;4.33;;;;;;;;;;5030236;28;20482;-63
2022/11/23 05:09:34;;;;;;;6.30;3.20;;;;;;;;;;5008155;28;20213;-63
2022/11/23 05:12:03;;;;;;;3.97;2.90;;;;;;;;;;5007366;28;21844;-63
2022/11/23 05:14:31;;;;;;;4.43;3.10;;;;;;;;;;5028353;28;20198;-62
2022/11/23 05:16:58;;;;;;;14.83;8.67;;;;;;;;;;5017250;28;20272;-64
2022/11/23 05:19:26;;;;;;;12.27;7.80;;;;;;;;;;5045037;28;20238;-63
2022/11/23 05:21:53;;;;;;;9.57;7.33;;;;;;;;;;5043189;28;20266;-64
2022/11/23 05:24:20;;;;;;;9.23;6.07;;;;;;;;;;5044180;28;20293;-64
2022/11/23 05:26:47;;;;;;;13.83;8.00;;;;;;;;;;5041865;28;20328;-64
2022/11/23 05:29:22;;;;;;;14.10;7.63;;;;;;;;;;5028636;28;20209;-62
2022/11/23 05:31:49;;;;;;;12.90;7.33;;;;;;;;;;5030009;28;20253;-63
2022/11/23 05:34:16;;;;;;;8.87;5.60;;;;;;;;;;5007909;28;20210;-61
2022/11/23 05:36:44;;;;;;;20.80;6.00;;;;;;;;;;5007859;28;20214;-62
2022/11/23 05:39:11;;;;;;;21.80;5.97;;;;;;;;;;5006185;28;20218;-64
2022/11/23 05:41:38;;;;;;;17.73;5.77;;;;;;;;;;5012808;28;20207;-64
2022/11/23 05:44:06;;;;;;;20.67;6.20;;;;;;;;;;5005445;28;20654;-63
2022/11/23 05:46:33;;;;;;;15.67;5.93;;;;;;;;;;5046199;28;20331;-62
2022/11/23 05:49:00;;;;;;;17.63;6.17;;;;;;;;;;5026334;28;20206;-63
2022/11/23 05:51:28;;;;;;;23.10;6.43;;;;;;;;;;5015909;28;20304;-63
2022/11/23 05:53:57;;;;;;;12.90;6.00;;;;;;;;;;5008354;28;20249;-62
2022/11/23 05:56:24;;;;;;;12.57;5.97;;;;;;;;;;5028453;28;20310;-62
2022/11/23 05:58:51;;;;;;;14.87;6.43;;;;;;;;;;5009337;28;20210;-63
2022/11/23 06:01:19;;;;;;;12.10;6.67;;;;;;;;;;5013781;28;20305;-63
2022/11/23 06:03:46;;;;;;;14.93;7.50;;;;;;;;;;5009613;28;20874;-63
2022/11/23 06:06:13;;;;;;;17.73;7.17;;;;;;;;;;5015894;28;20225;-63
2022/11/23 06:08:41;;;;;;;10.87;7.13;;;;;;;;;;5026469;28;20445;-62
2022/11/23 06:11:15;;;;;;;18.27;6.63;;;;;;;;;;5009962;28;20228;-62
2022/11/23 06:13:42;;;;;;;18.30;6.40;;;;;;;;;;5026578;28;20325;-63
2022/11/23 06:16:10;;;;;;;27.23;6.33;;;;;;;;;;5024256;28;20216;-62
2022/11/23 06:18:37;;;;;;;47.37;7.03;;;;;;;;;;5006968;28;20224;-62
2022/11/23 06:21:04;;;;;;;54.90;7.40;;;;;;;;;;5022920;28;20482;-64
2022/11/23 06:23:32;;;;;;;38.80;7.33;;;;;;;;;;5015451;28;20240;-64
2022/11/23 06:26:00;;;;;;;34.43;6.60;;;;;;;;;;5026129;28;20346;-62
2022/11/23 06:28:27;;;;;;;35.07;7.07;;;;;;;;;;5023246;28;20206;-64
2022/11/23 06:30:56;;;;;;;16.83;6.47;;;;;;;;;;5028183;28;20211;-63
2022/11/23 06:33:23;;;;;;;29.77;7.57;;;;;;;;;;5007663;28;20322;-62
2022/11/23 06:35:53;;;;;;;33.83;7.87;;;;;;;;;;5013475;28;20212;-63
2022/11/23 06:38:21;;;;;;;36.70;8.83;;;;;;;;;;5026366;28;20643;-63
2022/11/23 06:40:48;;;;;;;37.67;8.57;;;;;;;;;;5014345;28;20208;-62
2022/11/23 06:43:15;;;;;;;19.13;7.33;;;;;;;;;;5011626;28;20882;-63
2022/11/23 06:45:43;;;;;;;37.40;8.67;;;;;;;;;;5013777;28;20782;-63
2022/11/23 06:48:11;;;;;;;22.60;7.60;;;;;;;;;;5029102;28;20799;-64
2022/11/23 06:50:38;;;;;;;35.17;11.27;;;;;;;;;;5009338;28;20234;-62
2022/11/23 06:53:06;;;;;;;60.70;20.20;;;;;;;;;;5015045;28;20240;-64
2022/11/23 06:55:33;;;;;;;30.67;14.73;;;;;;;;;;5031524;28;20298;-62
2022/11/23 06:58:00;;;;;;;32.30;12.10;;;;;;;;;;5049241;28;20210;-63
2022/11/23 07:00:28;;;;;;;24.83;9.90;;;;;;;;;;5051169;28;20301;-62
2022/11/23 07:02:55;;;;;;;14.97;9.53;;;;;;;;;;5016425;28;20593;-62
2022/11/23 07:05:23;;;;;;;29.00;11.60;;;;;;;;;;5028872;28;20208;-61
2022/11/23 07:07:50;;;;;;;33.27;12.40;;;;;;;;;;5047035;28;20312;-61
2022/11/23 07:10:18;;;;;;;18.67;10.40;;;;;;;;;;5048263;28;20221;-63
2022/11/23 07:12:46;;;;;;;23.27;8.67;;;;;;;;;;5045302;28;20231;-64
2022/11/23 07:15:13;;;;;;;32.70;7.00;;;;;;;;;;5034533;28;20234;-62
2022/11/23 07:17:41;;;;;;;24.63;8.40;;;;;;;;;;5024598;28;20256;-62
2022/11/23 07:20:09;;;;;;;22.87;7.97;;;;;;;;;;5046359;28;20610;-62
2022/11/23 07:22:36;;;;;;;18.20;8.00;;;;;;;;;;5051603;28;20312;-62
2022/11/23 07:25:04;;;;;;;29.60;8.97;;;;;;;;;;5048570;28;20216;-62
2022/11/23 07:27:32;;;;;;;20.13;8.03;;;;;;;;;;5017455;28;20290;-61
2022/11/23 07:29:59;;;;;;;43.47;8.37;;;;;;;;;;5011169;28;20305;-64
2022/11/23 07:32:26;;;;;;;53.00;11.07;;;;;;;;;;5027452;28;20327;-61
2022/11/23 07:34:54;;;;;;;23.60;7.03;;;;;;;;;;5042383;28;20293;-64
2022/11/23 07:37:21;;;;;;;36.80;6.77;;;;;;;;;;5018808;28;20700;-62
2022/11/23 07:39:51;;;;;;;18.47;6.20;;;;;;;;;;5010305;28;21283;-62
2022/11/23 07:42:24;;;;;;;12.17;6.00;;;;;;;;;;5010958;28;20234;-64
2022/11/23 07:45:06;;;;;;;33.57;9.80;;;;;;;;;;5020306;28;20218;-63
2022/11/23 07:47:33;;;;;;;22.33;7.10;;;;;;;;;;5011334;28;20719;-64
2022/11/23 07:50:00;;;;;;;66.60;7.90;;;;;;;;;;5016429;28;20206;-61
2022/11/23 07:52:28;;;;;;;54.73;7.67;;;;;;;;;;5028696;28;20668;-63
2022/11/23 07:54:59;;;;;;;17.63;6.50;;;;;;;;;;5015934;28;20512;-63
2022/11/23 07:57:27;;;;;;;17.43;6.53;;;;;;;;;;5013024;28;20309;-64
2022/11/23 07:59:54;;;;;;;39.13;7.17;;;;;;;;;;5016237;28;20650;-62
2022/11/23 08:02:22;;;;;;;12.10;7.00;;;;;;;;;;5040318;28;20226;-61
2022/11/23 08:04:49;;;;;;;20.93;7.00;;;;;;;;;;5015098;28;20208;-63
2022/11/23 08:07:16;;;;;;;22.33;6.20;;;;;;;;;;5052545;28;20754;-64
2022/11/23 08:09:44;;;;;;;31.50;7.33;;;;;;;;;;5048161;28;20424;-62
2022/11/23 08:12:11;;;;;;;35.47;7.27;;;;;;;;;;5040419;28;20226;-63
2022/11/23 08:14:38;;;;;;;19.23;6.27;;;;;;;;;;5045060;28;20242;-64
2022/11/23 08:17:06;;;;;;;33.50;6.20;;;;;;;;;;5032819;28;20284;-63
2022/11/23 08:19:33;;;;;;;30.43;6.43;;;;;;;;;;5017157;28;23899;-63
2022/11/23 08:22:01;;;;;;;42.27;6.53;;;;;;;;;;5014967;28;20237;-63
2022/11/23 08:24:28;;;;;;;34.73;6.83;;;;;;;;;;5015502;28;20305;-61
2022/11/23 08:26:56;;;;;;;49.00;7.03;;;;;;;;;;5016603;28;20321;-62
2022/11/23 08:29:24;;;;;;;34.87;6.60;;;;;;;;;;5029782;28;20234;-62
2022/11/23 08:31:51;;;;;;;21.33;6.80;;;;;;;;;;5017065;28;20236;-63
2022/11/23 08:34:19;;;;;;;44.73;7.10;;;;;;;;;;5035524;28;20203;-62
2022/11/23 08:36:47;;;;;;;23.97;7.23;;;;;;;;;;5049411;28;20241;-63
2022/11/23 08:39:15;;;;;;;41.03;7.30;;;;;;;;;;5028704;28;20640;-63
2022/11/23 08:41:42;;;;;;;24.43;7.47;;;;;;;;;;5047794;28;20257;-62
2022/11/23 08:44:11;;;;;;;28.90;6.57;;;;;;;;;;5049642;28;20297;-64
2022/11/23 08:46:39;;;;;;;34.53;6.77;;;;;;;;;;5035709;28;20312;-62
2022/11/23 08:49:06;;;;;;;28.20;7.87;;;;;;;;;;5032855;28;23073;-62
2022/11/23 08:51:34;;;;;;;23.27;7.00;;;;;;;;;;5018968;28;20288;-64
2022/11/23 08:54:02;;;;;;;32.07;6.37;;;;;;;;;;5029528;28;20203;-64
2022/11/23 08:56:30;;;;;;;31.20;6.63;;;;;;;;;;5014230;28;20217;-64
2022/11/23 08:58:57;;;;;;;31.90;7.37;;;;;;;;;;5031736;28;20337;-63
2022/11/23 09:01:25;;;;;;;16.43;5.47;;;;;;;;;;5033447;28;20301;-64
2022/11/23 09:03:53;;;;;;;20.30;6.07;;;;;;;;;;5014197;28;20828;-62
2022/11/23 09:06:27;;;;;;;28.30;5.80;;;;;;;;;;5049711;28;20576;-62
2022/11/23 09:08:55;;;;;;;18.03;6.03;;;;;;;;;;5033162;28;20568;-63
2022/11/23 09:11:24;;;;;;;30.80;5.77;;;;;;;;;;5010535;28;20653;-63
2022/11/23 09:13:52;;;;;;;27.70;7.37;;;;;;;;;;5013598;28;21034;-63
2022/11/23 09:16:19;;;;;;;21.30;6.47;;;;;;;;;;5025605;28;20272;-62
2022/11/23 09:18:48;;;;;;;19.37;6.27;;;;;;;;;;5028812;28;20218;-64
2022/11/23 09:21:15;;;;;;;17.50;6.43;;;;;;;;;;5029924;28;20294;-62
2022/11/23 09:23:42;;;;;;;18.27;6.30;;;;;;;;;;5048652;28;20257;-63
2022/11/23 09:26:10;;;;;;;20.50;6.60;;;;;;;;;;5034502;28;20751;-64
2022/11/23 09:28:37;;;;;;;24.33;6.53;;;;;;;;;;5036158;28;20244;-63
2022/11/23 09:31:10;;;;;;;25.73;7.37;;;;;;;;;;5027227;28;20217;-63
2022/11/23 09:33:38;;;;;;;20.87;7.27;;;;;;;;;;5014020;28;20230;-62
2022/11/23 09:36:06;;;;;;;12.50;7.50;;;;;;;;;;5011366;28;20206;-64
2022/11/23 09:38:33;;;;;;;25.03;9.03;;;;;;;;;;5021554;28;20285;-64
2022/11/23 09:41:20;;;;;;;11.47;8.23;;;;;;;;;;5027691;28;20208;-63
2022/11/23 09:44:14;;;;;;;14.03;8.77;;;;;;;;;;5044774;28;20210;-61
2022/11/23 09:46:41;;;;;;;12.70;8.07;;;;;;;;;;5015228;28;20214;-62
2022/11/23 09:49:15;;;;;;;10.90;7.60;;;;;;;;;;5017220;28;20221;-61
2022/11/23 09:51:43;;;;;;;11.37;7.20;;;;;;;;;;5014539;28;20287;-64
2022/11/23 09:54:13;;;;;;;10.30;7.20;;;;;;;;;;5051089;28;20221;-63
2022/11/23 09:56:41;;;;;;;9.33;6.50;;;;;;;;;;5030931;28;20452;-63
2022/11/23 09:59:31;;;;;;;10.30;6.83;;;;;;;;;;5033275;28;20289;-63
2022/11/23 10:02:00;;;;;;;9.73;6.73;;;;;;;;;;5046586;28;20312;-63
2022/11/23 10:04:30;;;;;;;9.60;6.17;;;;;;;;;;5023893;28;21232;-62
2022/11/23 10:07:03;;;;;;;12.77;7.10;;;;;;;;;;5029597;28;20237;-63
2022/11/23 10:09:57;;;;;;;12.13;6.80;;;;;;;;;;5012534;28;20202;-62
2022/11/23 10:12:27;;;;;;;9.87;6.57;;;;;;;;;;5025816;28;20667;-64
2022/11/23 10:15:10;;;;;;;8.57;6.43;;;;;;;;;;5012424;28;20264;-62
2022/11/23 10:17:38;;;;;;;8.53;5.80;;;;;;;;;;5013143;28;20314;-62
2022/11/23 10:20:25;;;;;;;8.63;5.50;;;;;;;;;;5013319;28;20606;-64
2022/11/23 10:23:00;;;;;;;7.37;5.13;;;;;;;;;;5018843;28;20320;-63
2022/11/23 10:25:39;;;;;;;7.80;5.23;;;;;;;;;;5006608;28;20209;-63
2022/11/23 10:28:13;;;;;;;9.27;5.70;;;;;;;;;;5025509;28;20228;-61
2022/11/23 10:30:41;;;;;;;9.07;6.30;;;;;;;;;;5007970;28;20197;-64
2022/11/23 10:33:30;;;;;;;10.23;5.37;;;;;;;;;;5018811;28;20250;-61
2022/11/23 10:35:57;;;;;;;12.50;5.50;;;;;;;;;;5024013;28;20687;-61
2022/11/23 10:38:25;;;;;;;9.70;5.00;;;;;;;;;;5009575;28;20456;-62
2022/11/23 10:41:05;;;;;;;8.20;5.07;;;;;;;;;;5023407;28;20234;-64
2022/11/23 10:43:46;;;;;;;6.77;5.10;;;;;;;;;;5026650;28;20261;-64
2022/11/23 10:46:29;;;;;;;6.83;5.60;;;;;;;;;;5012458;28;20661;-63
2022/11/23 10:49:08;;;;;;;9.33;4.23;;;;;;;;;;5009258;28;20267;-64
2022/11/23 10:51:35;;;;;;;10.53;5.43;;;;;;;;;;5010586;28;20339;-64
2022/11/23 10:54:16;;;;;;;9.83;5.27;;;;;;;;;;5008740;28;20217;-63
2022/11/23 10:56:48;;;;;;;9.70;5.70;;;;;;;;;;5029730;28;20807;-64
2022/11/23 10:59:32;;;;;;;6.53;4.43;;;;;;;;;;5027711;28;20678;-63
2022/11/23 11:02:01;;;;;;;8.03;4.37;;;;;;;;;;5007599;28;20395;-63
2022/11/23 11:04:29;;;;;;;8.53;4.93;;;;;;;;;;5011409;28;20217;-63
2022/11/23 11:07:09;;;;;;;6.50;3.80;;;;;;;;;;5013918;28;20490;-64
2022/11/23 11:09:38;;;;;;;6.20;3.13;;;;;;;;;;5027005;28;20230;-63
2022/11/23 11:12:05;;;;;;;5.90;3.63;;;;;;;;;;5024562;28;20218;-63
2022/11/23 11:14:32;;;;;;;3.70;2.43;;;;;;;;;;5012636;28;20208;-63
2022/11/23 11:17:24;;;;;;;6.33;2.80;;;;;;;;;;5016757;28;20217;-63
2022/11/23 11:19:51;;;;;;;8.63;5.07;;;;;;;;;;5058456;28;20209;-64
2022/11/23 11:22:35;;;;;;;10.20;5.30;;;;;;;;;;5040443;28;20232;-63
2022/11/23 11:25:06;;;;;;;5.53;2.63;;;;;;;;;;5023506;28;20241;-62
2022/11/23 11:27:34;;;;;;;9.87;2.87;;;;;;;;;;5031280;28;20245;-61
2022/11/23 11:30:20;;;;;;;5.33;2.57;;;;;;;;;;5026124;28;20209;-62
2022/11/23 11:32:53;;;;;;;7.20;2.80;;;;;;;;;;5027766;28;20903;-62
2022/11/23 11:35:21;;;;;;;5.00;1.97;;;;;;;;;;5023467;28;20206;-63
2022/11/23 11:37:54;;;;;;;6.13;2.30;;;;;;;;;;5014505;28;20979;-62
2022/11/23 11:40:31;;;;;;;2.53;1.90;;;;;;;;;;5028299;28;20468;-63
2022/11/23 11:43:17;;;;;;;4.10;1.90;;;;;;;;;;5008337;28;20367;-64
2022/11/23 11:45:47;;;;;;;4.50;1.70;;;;;;;;;;5004974;28;20243;-61
2022/11/23 11:48:39;;;;;;;4.77;1.47;;;;;;;;;;5027907;28;20222;-64
2022/11/23 11:51:13;;;;;;;4.00;2.30;;;;;;;;;;5009021;28;20292;-63
2022/11/23 11:54:07;;;;;;;3.83;1.90;;;;;;;;;;5000036;28;20236;-63
2022/11/23 11:56:43;;;;;;;4.43;1.70;;;;;;;;;;4988638;28;20215;-63
2022/11/23 11:59:14;;;;;;;3.47;1.80;;;;;;;;;;5023743;28;20202;-63
2022/11/23 12:01:51;;;;;;;4.57;2.27;;;;;;;;;;4999931;28;21917;-63
2022/11/23 12:04:26;;;;;;;3.87;1.70;;;;;;;;;;5057999;28;20330;-64
2022/11/23 12:07:04;;;;;;;2.57;1.70;;;;;;;;;;5043938;28;20731;-63
2022/11/23 12:09:34;;;;;;;3.57;1.50;;;;;;;;;;5023646;28;20297;-62
2022/11/23 12:12:03;;;;;;;4.40;1.80;;;;;;;;;;5030633;28;20246;-63
2022/11/23 12:14:30;;;;;;;4.03;1.80;;;;;;;;;;5003625;28;20661;-64
2022/11/23 12:17:02;;;;;;;7.70;2.33;;;;;;;;;;5008060;28;20221;-64
2022/11/23 12:19:58;;;;;;;5.07;1.70;;;;;;;;;;5015779;28;20202;-63
2022/11/23 12:22:29;;;;;;;2.97;1.50;;;;;;;;;;5033961;28;21948;-63
2022/11/23 12:25:10;;;;;;;3.23;1.50;;;;;;;;;;5017671;28;20655;-63
2022/11/23 12:27:45;;;;;;;2.93;1.60;;;;;;;;;;5034139;28;20216;-63
2022/11/23 12:30:28;;;;;;;2.13;1.70;;;;;;;;;;5028800;28;20201;-64
2022/11/23 12:32:58;;;;;;;2.87;1.53;;;;;;;;;;5042849;28;20253;-64
2022/11/23 12:35:44;;;;;;;4.37;1.90;;;;;;;;;;5030079;28;20260;-64
2022/11/23 12:38:11;;;;;;;4.53;2.73;;;;;;;;;;5042912;28;20217;-64
2022/11/23 12:40:42;;;;;;;3.60;1.80;;;;;;;;;;5046275;28;20296;-63
2022/11/23 12:43:13;;;;;;;2.87;1.63;;;;;;;;;;5032749;28;20218;-64
2022/11/23 12:45:50;;;;;;;5.33;1.60;;;;;;;;;;5061781;28;20733;-64
2022/11/23 12:48:37;;;;;;;2.90;1.90;;;;;;;;;;5046600;28;20288;-64
2022/11/23 12:51:04;;;;;;;2.70;1.60;;;;;;;;;;5030054;28;20293;-63
2022/11/23 12:53:34;;;;;;;5.60;2.57;;;;;;;;;;5035174;28;20272;-64
2022/11/23 12:56:08;;;;;;;3.87;2.70;;;;;;;;;;5018666;28;20206;-64
2022/11/23 12:58:37;;;;;;;2.50;1.80;;;;;;;;;;5013517;28;20293;-63
2022/11/23 13:01:22;;;;;;;4.13;1.60;;;;;;;;;;5031638;28;20222;-62
2022/11/23 13:04:15;;;;;;;2.60;1.77;;;;;;;;;;5017954;28;20657;-63
2022/11/23 13:06:43;;;;;;;3.67;2.20;;;;;;;;;;5034544;28;20210;-63
2022/11/23 13:09:33;;;;;;;2.03;1.50;;;;;;;;;;5019692;28;20233;-63
2022/11/23 13:12:10;;;;;;;2.20;1.33;;;;;;;;;;5008890;28;20270;-62
2022/11/23 13:14:57;;;;;;;2.30;1.50;;;;;;;;;;5030492;28;20739;-62
2022/11/23 13:17:43;;;;;;;2.77;1.50;;;;;;;;;;5005421;28;20292;-64
2022/11/23 13:20:29;;;;;;;2.83;1.90;;;;;;;;;;5029360;28;20292;-63
2022/11/23 13:22:58;;;;;;;1.93;1.20;;;;;;;;;;5023533;28;20265;-63
2022/11/23 13:25:26;;;;;;;1.93;1.70;;;;;;;;;;5043661;28;20237;-61
2022/11/23 13:27:54;;;;;;;2.07;1.47;;;;;;;;;;5010096;28;20234;-64
2022/11/23 13:30:22;;;;;;;4.67;2.50;;;;;;;;;;5010329;28;20293;-63
2022/11/23 13:32:56;;;;;;;2.10;1.60;;;;;;;;;;5010834;28;20236;-64
2022/11/23 13:35:26;;;;;;;2.70;2.10;;;;;;;;;;5022879;28;20206;-62
2022/11/23 13:37:56;;;;;;;2.20;2.00;;;;;;;;;;5024539;28;20218;-62
2022/11/23 13:40:28;;;;;;;4.07;1.80;;;;;;;;;;5022416;28;20268;-63
2022/11/23 13:42:57;;;;;;;5.17;2.00;;;;;;;;;;5027385;28;20233;-64
2022/11/23 13:45:28;;;;;;;2.50;1.57;;;;;;;;;;5028659;28;20217;-63
2022/11/23 13:48:13;;;;;;;5.47;1.60;;;;;;;;;;5028306;28;20447;-63
2022/11/23 13:51:01;;;;;;;2.13;1.77;;;;;;;;;;5027867;28;20206;-64
2022/11/23 13:53:39;;;;;;;3.03;2.23;;;;;;;;;;5025686;28;20292;-65
2022/11/23 13:56:18;;;;;;;1.70;1.60;;;;;;;;;;5007778;28;20202;-64
2022/11/23 13:58:55;;;;;;;2.20;2.00;;;;;;;;;;5006679;28;20221;-63
2022/11/23 14:02:02;;;;;;;3.50;2.33;;;;;;;;;;5044795;28;20248;-63
2022/11/23 14:04:30;;;;;;;4.23;2.00;;;;;;;;;;4974251;28;20379;-64
2022/11/23 14:07:02;;;;;;;6.03;2.10;;;;;;;;;;4954989;28;20219;-63
2022/11/23 14:09:32;;;;;;;3.00;2.30;;;;;;;;;;4998906;28;20242;-63
2022/11/23 14:12:16;;;;;;;2.57;2.10;;;;;;;;;;5012600;28;20313;-64
2022/11/23 14:14:47;;;;;;;3.07;1.73;;;;;;;;;;5007950;28;20210;-64
2022/11/23 14:17:35;;;;;;;2.90;1.70;;;;;;;;;;5007292;28;20624;-64
2022/11/23 14:20:05;;;;;;;4.57;2.70;;;;;;;;;;5013655;28;20625;-64
2022/11/23 14:22:51;;;;;;;4.63;3.30;;;;;;;;;;5016199;28;20228;-63
2022/11/23 14:25:28;;;;;;;4.47;3.50;;;;;;;;;;5033094;28;20213;-64
2022/11/23 14:28:14;;;;;;;5.60;3.83;;;;;;;;;;5027622;28;20233;-63
2022/11/23 14:31:05;;;;;;;3.53;2.70;;;;;;;;;;5040077;28;20396;-64
2022/11/23 14:33:47;;;;;;;2.77;2.40;;;;;;;;;;5006004;28;20503;-64
2022/11/23 14:36:18;;;;;;;4.00;3.60;;;;;;;;;;5007436;28;20210;-63
2022/11/23 14:39:05;;;;;;;5.40;2.40;;;;;;;;;;5011600;28;20755;-63
2022/11/23 14:41:35;;;;;;;5.17;4.00;;;;;;;;;;5027727;28;20760;-63
2022/11/23 14:44:05;;;;;;;3.37;2.70;;;;;;;;;;5022112;28;20295;-64
2022/11/23 14:46:33;;;;;;;3.20;1.70;;;;;;;;;;5028738;28;20214;-63
2022/11/23 14:49:05;;;;;;;2.87;2.00;;;;;;;;;;5009801;28;20230;-64
2022/11/23 14:51:33;;;;;;;2.00;1.80;;;;;;;;;;5011640;28;20302;-64
2022/11/23 14:54:02;;;;;;;3.10;2.50;;;;;;;;;;5012495;28;20257;-64
2022/11/23 14:56:42;;;;;;;1.73;1.50;;;;;;;;;;5024949;28;20210;-63
2022/11/23 14:59:17;;;;;;;1.93;1.40;;;;;;;;;;5029851;28;20220;-64